sensor_id;sensor_type;location;lat;lon;timestamp;pressure;altitude;pressure_sealevel;temperature;humidity
550;BME280;20066;48.764;9.176;2023-05-14T00:00:45;98203.09;;;15.11;74.93
550;BME280;20066;48.764;9.176;2023-05-14T00:03:13;98201.81;;;15.38;73.53
550;BME280;20066;48.764;9.176;2023-05-14T00:05:42;98197.66;;;15.54;73.34
550;BME280;20066;48.764;9.176;2023-05-14T00:08:10;98197.63;;;15.57;71.72
550;BME280;20066;48.764;9.176;2023-05-14T00:10:38;98191.13;;;15.31;73.42
550;BME280;20066;48.764;9.176;2023-05-14T00:13:06;98192.56;;;15.59;72.62
550;BME280;20066;48.764;9.176;2023-05-14T00:15:33;98182.41;;;14.97;72.89
550;BME280;20066;48.764;9.176;2023-05-14T00:18:01;98173.97;;;14.68;77.69
550;BME280;20066;48.764;9.176;2023-05-14T00:20:29;98186.03;;;15.10;73.85
550;BME280;20066;48.764;9.176;2023-05-14T00:22:58;98177.34;;;14.22;76.82
550;BME280;20066;48.764;9.176;2023-05-14T00:25:26;98172.00;;;14.68;75.46
550;BME280;20066;48.764;9.176;2023-05-14T00:27:54;98173.13;;;15.21;73.99
550;BME280;20066;48.764;9.176;2023-05-14T00:30:22;98179.31;;;15.41;72.90
550;BME280;20066;48.764;9.176;2023-05-14T00:32:50;98171.13;;;15.45;72.20
550;BME280;20066;48.764;9.176;2023-05-14T00:35:18;98172.78;;;15.39;70.73
550;BME280;20066;48.764;9.176;2023-05-14T00:37:46;98172.00;;;15.38;71.05
550;BME280;20066;48.764;9.176;2023-05-14T00:40:15;98163.28;;;15.51;70.97
550;BME280;20066;48.764;9.176;2023-05-14T00:42:43;98167.03;;;15.57;72.43
550;BME280;20066;48.764;9.176;2023-05-14T00:45:11;98168.03;;;15.23;72.31
550;BME280;20066;48.764;9.176;2023-05-14T00:47:39;98168.16;;;15.16;73.03
550;BME280;20066;48.764;9.176;2023-05-14T00:50:07;98167.63;;;15.01;72.21
550;BME280;20066;48.764;9.176;2023-05-14T00:52:36;98167.16;;;13.72;79.18
550;BME280;20066;48.764;9.176;2023-05-14T00:55:05;98171.56;;;13.59;80.93
550;BME280;20066;48.764;9.176;2023-05-14T00:57:35;98164.81;;;14.35;78.65
550;BME280;20066;48.764;9.176;2023-05-14T01:00:04;98153.91;;;14.65;75.82
550;BME280;20066;48.764;9.176;2023-05-14T01:02:32;98156.31;;;14.60;75.11
550;BME280;20066;48.764;9.176;2023-05-14T01:05:00;98144.63;;;14.13;77.22
550;BME280;20066;48.764;9.176;2023-05-14T01:07:35;98155.13;;;14.07;77.93
550;BME280;20066;48.764;9.176;2023-05-14T01:10:08;98146.63;;;14.09;78.19
550;BME280;20066;48.764;9.176;2023-05-14T01:12:46;98142.72;;;14.63;75.87
550;BME280;20066;48.764;9.176;2023-05-14T01:15:20;98141.19;;;14.62;74.52
550;BME280;20066;48.764;9.176;2023-05-14T01:17:51;98145.72;;;14.19;78.25
550;BME280;20066;48.764;9.176;2023-05-14T01:20:20;98145.56;;;14.53;75.61
550;BME280;20066;48.764;9.176;2023-05-14T01:22:49;98147.59;;;14.49;75.30
550;BME280;20066;48.764;9.176;2023-05-14T01:25:17;98142.13;;;14.52;75.03
550;BME280;20066;48.764;9.176;2023-05-14T01:28:04;98150.53;;;13.40;78.66
550;BME280;20066;48.764;9.176;2023-05-14T01:30:35;98150.44;;;13.47;80.21
550;BME280;20066;48.764;9.176;2023-05-14T01:33:05;98149.72;;;13.05;81.52
550;BME280;20066;48.764;9.176;2023-05-14T01:35:36;98152.19;;;12.86;82.29
550;BME280;20066;48.764;9.176;2023-05-14T01:38:06;98148.66;;;13.33;80.00
550;BME280;20066;48.764;9.176;2023-05-14T01:40:36;98144.78;;;13.34;79.51
550;BME280;20066;48.764;9.176;2023-05-14T01:43:04;98136.75;;;13.91;76.96
550;BME280;20066;48.764;9.176;2023-05-14T01:45:34;98129.97;;;13.80;77.23
550;BME280;20066;48.764;9.176;2023-05-14T01:48:03;98133.47;;;13.46;78.04
550;BME280;20066;48.764;9.176;2023-05-14T01:50:31;98145.28;;;13.26;78.17
550;BME280;20066;48.764;9.176;2023-05-14T01:52:58;98131.19;;;12.59;80.96
550;BME280;20066;48.764;9.176;2023-05-14T01:55:27;98140.59;;;12.41;83.54
550;BME280;20066;48.764;9.176;2023-05-14T01:57:55;98138.75;;;12.27;83.03
550;BME280;20066;48.764;9.176;2023-05-14T02:00:23;98140.44;;;13.06;80.70
550;BME280;20066;48.764;9.176;2023-05-14T02:02:52;98142.25;;;13.20;78.45
550;BME280;20066;48.764;9.176;2023-05-14T02:05:19;98142.56;;;12.88;79.89
550;BME280;20066;48.764;9.176;2023-05-14T02:07:47;98137.47;;;12.97;80.01
550;BME280;20066;48.764;9.176;2023-05-14T02:10:15;98144.47;;;12.84;79.51
550;BME280;20066;48.764;9.176;2023-05-14T02:12:44;98148.34;;;13.28;79.24
550;BME280;20066;48.764;9.176;2023-05-14T02:15:12;98139.34;;;13.72;76.21
550;BME280;20066;48.764;9.176;2023-05-14T02:17:39;98138.50;;;14.09;75.18
550;BME280;20066;48.764;9.176;2023-05-14T02:20:08;98143.19;;;13.74;76.48
550;BME280;20066;48.764;9.176;2023-05-14T02:22:36;98138.06;;;14.14;76.07
550;BME280;20066;48.764;9.176;2023-05-14T02:25:08;98140.81;;;14.37;74.23
550;BME280;20066;48.764;9.176;2023-05-14T02:27:36;98137.59;;;14.19;75.06
550;BME280;20066;48.764;9.176;2023-05-14T02:30:06;98143.81;;;14.43;73.61
550;BME280;20066;48.764;9.176;2023-05-14T02:32:35;98134.69;;;14.06;73.65
550;BME280;20066;48.764;9.176;2023-05-14T02:35:03;98134.06;;;14.22;73.16
550;BME280;20066;48.764;9.176;2023-05-14T02:37:31;98142.66;;;13.52;75.45
550;BME280;20066;48.764;9.176;2023-05-14T02:40:00;98143.03;;;13.17;77.49
550;BME280;20066;48.764;9.176;2023-05-14T02:42:27;98144.06;;;13.64;76.53
550;BME280;20066;48.764;9.176;2023-05-14T02:44:55;98145.22;;;13.67;76.06
550;BME280;20066;48.764;9.176;2023-05-14T02:47:24;98135.78;;;13.44;76.39
550;BME280;20066;48.764;9.176;2023-05-14T02:49:52;98150.56;;;13.36;77.87
550;BME280;20066;48.764;9.176;2023-05-14T02:52:20;98142.22;;;13.88;76.38
550;BME280;20066;48.764;9.176;2023-05-14T02:54:47;98141.19;;;14.09;73.94
550;BME280;20066;48.764;9.176;2023-05-14T02:57:15;98141.47;;;13.53;76.87
550;BME280;20066;48.764;9.176;2023-05-14T02:59:43;98149.81;;;13.32;79.09
550;BME280;20066;48.764;9.176;2023-05-14T03:02:11;98149.63;;;12.68;80.96
550;BME280;20066;48.764;9.176;2023-05-14T03:04:40;98148.44;;;12.69;80.11
550;BME280;20066;48.764;9.176;2023-05-14T03:07:08;98143.38;;;12.78;81.86
550;BME280;20066;48.764;9.176;2023-05-14T03:09:36;98161.34;;;12.99;80.51
550;BME280;20066;48.764;9.176;2023-05-14T03:12:04;98158.66;;;14.04;75.62
550;BME280;20066;48.764;9.176;2023-05-14T03:14:32;98159.88;;;13.66;76.61
550;BME280;20066;48.764;9.176;2023-05-14T03:17:00;98146.50;;;13.85;75.25
550;BME280;20066;48.764;9.176;2023-05-14T03:19:27;98142.94;;;14.49;72.68
550;BME280;20066;48.764;9.176;2023-05-14T03:21:57;98150.63;;;13.63;76.91
550;BME280;20066;48.764;9.176;2023-05-14T03:24:24;98139.84;;;13.63;73.60
550;BME280;20066;48.764;9.176;2023-05-14T03:26:52;98144.13;;;13.23;76.71
550;BME280;20066;48.764;9.176;2023-05-14T03:29:20;98141.72;;;13.97;75.85
550;BME280;20066;48.764;9.176;2023-05-14T03:31:47;98141.03;;;13.25;75.97
550;BME280;20066;48.764;9.176;2023-05-14T03:34:16;98149.16;;;13.21;77.39
550;BME280;20066;48.764;9.176;2023-05-14T03:36:43;98145.63;;;13.92;74.10
550;BME280;20066;48.764;9.176;2023-05-14T03:39:12;98148.47;;;13.13;75.47
550;BME280;20066;48.764;9.176;2023-05-14T03:41:40;98140.78;;;13.46;77.57
550;BME280;20066;48.764;9.176;2023-05-14T03:44:08;98148.81;;;13.53;75.88
550;BME280;20066;48.764;9.176;2023-05-14T03:46:36;98146.28;;;13.73;76.54
550;BME280;20066;48.764;9.176;2023-05-14T03:49:06;98148.81;;;13.87;73.45
550;BME280;20066;48.764;9.176;2023-05-14T03:51:34;98142.94;;;13.62;77.82
550;BME280;20066;48.764;9.176;2023-05-14T03:54:02;98142.59;;;13.90;75.24
550;BME280;20066;48.764;9.176;2023-05-14T03:56:31;98141.41;;;13.91;73.69
550;BME280;20066;48.764;9.176;2023-05-14T03:58:58;98137.78;;;14.32;71.95
550;BME280;20066;48.764;9.176;2023-05-14T04:01:26;98138.69;;;12.86;76.95
550;BME280;20066;48.764;9.176;2023-05-14T04:03:54;98139.03;;;13.32;77.30
550;BME280;20066;48.764;9.176;2023-05-14T04:06:22;98139.13;;;13.59;74.16
550;BME280;20066;48.764;9.176;2023-05-14T04:08:49;98136.63;;;13.72;73.83
550;BME280;20066;48.764;9.176;2023-05-14T04:11:17;98128.03;;;14.38;71.63
550;BME280;20066;48.764;9.176;2023-05-14T04:13:46;98137.81;;;13.71;73.24
550;BME280;20066;48.764;9.176;2023-05-14T04:16:14;98141.41;;;14.48;70.90
550;BME280;20066;48.764;9.176;2023-05-14T04:18:42;98135.19;;;14.51;71.09
550;BME280;20066;48.764;9.176;2023-05-14T04:21:09;98135.66;;;13.89;72.25
550;BME280;20066;48.764;9.176;2023-05-14T04:23:37;98139.81;;;13.97;73.93
550;BME280;20066;48.764;9.176;2023-05-14T04:26:05;98135.06;;;13.44;73.07
550;BME280;20066;48.764;9.176;2023-05-14T04:28:33;98137.41;;;14.03;73.31
550;BME280;20066;48.764;9.176;2023-05-14T04:31:02;98127.91;;;14.21;71.83
550;BME280;20066;48.764;9.176;2023-05-14T04:33:30;98127.47;;;13.93;71.85
550;BME280;20066;48.764;9.176;2023-05-14T04:35:57;98132.78;;;13.73;72.07
550;BME280;20066;48.764;9.176;2023-05-14T04:38:25;98138.19;;;13.39;75.00
550;BME280;20066;48.764;9.176;2023-05-14T04:40:53;98133.50;;;14.34;71.15
550;BME280;20066;48.764;9.176;2023-05-14T04:43:21;98133.94;;;14.02;72.07
550;BME280;20066;48.764;9.176;2023-05-14T04:45:48;98135.34;;;13.16;76.26
550;BME280;20066;48.764;9.176;2023-05-14T04:48:18;98135.75;;;13.48;74.04
550;BME280;20066;48.764;9.176;2023-05-14T04:50:46;98128.53;;;13.04;77.79
550;BME280;20066;48.764;9.176;2023-05-14T04:53:13;98141.31;;;13.68;73.96
550;BME280;20066;48.764;9.176;2023-05-14T04:55:41;98136.16;;;13.80;72.31
550;BME280;20066;48.764;9.176;2023-05-14T04:58:09;98136.50;;;13.14;76.00
550;BME280;20066;48.764;9.176;2023-05-14T05:00:36;98141.91;;;13.52;74.30
550;BME280;20066;48.764;9.176;2023-05-14T05:03:05;98143.28;;;13.67;71.39
550;BME280;20066;48.764;9.176;2023-05-14T05:05:34;98137.44;;;13.99;71.61
550;BME280;20066;48.764;9.176;2023-05-14T05:08:02;98138.88;;;14.11;71.58
550;BME280;20066;48.764;9.176;2023-05-14T05:10:30;98139.84;;;13.63;73.44
550;BME280;20066;48.764;9.176;2023-05-14T05:12:58;98145.03;;;13.09;75.06
550;BME280;20066;48.764;9.176;2023-05-14T05:15:26;98145.78;;;13.51;74.53
550;BME280;20066;48.764;9.176;2023-05-14T05:17:54;98137.28;;;12.67;74.82
550;BME280;20066;48.764;9.176;2023-05-14T05:20:22;98132.97;;;13.85;72.13
550;BME280;20066;48.764;9.176;2023-05-14T05:22:52;98131.16;;;14.36;69.82
550;BME280;20066;48.764;9.176;2023-05-14T05:25:20;98138.38;;;13.55;73.38
550;BME280;20066;48.764;9.176;2023-05-14T05:27:48;98138.31;;;12.84;76.64
550;BME280;20066;48.764;9.176;2023-05-14T05:30:15;98143.69;;;13.62;74.79
550;BME280;20066;48.764;9.176;2023-05-14T05:32:43;98135.25;;;14.21;69.86
550;BME280;20066;48.764;9.176;2023-05-14T05:35:11;98135.69;;;13.85;71.69
550;BME280;20066;48.764;9.176;2023-05-14T05:37:40;98142.66;;;12.74;73.03
550;BME280;20066;48.764;9.176;2023-05-14T05:40:09;98135.00;;;12.07;78.34
550;BME280;20066;48.764;9.176;2023-05-14T05:42:39;98144.38;;;12.47;77.43
550;BME280;20066;48.764;9.176;2023-05-14T05:45:08;98132.19;;;12.76;74.92
550;BME280;20066;48.764;9.176;2023-05-14T05:47:36;98140.03;;;13.79;73.79
550;BME280;20066;48.764;9.176;2023-05-14T05:50:05;98134.84;;;12.83;75.23
550;BME280;20066;48.764;9.176;2023-05-14T05:52:34;98134.50;;;12.81;75.68
550;BME280;20066;48.764;9.176;2023-05-14T05:55:02;98136.44;;;13.22;73.61
550;BME280;20066;48.764;9.176;2023-05-14T05:57:31;98133.47;;;13.09;76.18
550;BME280;20066;48.764;9.176;2023-05-14T05:59:59;98132.53;;;12.89;77.80
550;BME280;20066;48.764;9.176;2023-05-14T06:02:33;98137.44;;;13.69;73.07
550;BME280;20066;48.764;9.176;2023-05-14T06:05:01;98138.00;;;13.87;73.00
550;BME280;20066;48.764;9.176;2023-05-14T06:07:29;98143.13;;;13.78;73.84
550;BME280;20066;48.764;9.176;2023-05-14T06:09:56;98143.47;;;14.14;70.64
550;BME280;20066;48.764;9.176;2023-05-14T06:12:24;98143.59;;;13.39;73.24
550;BME280;20066;48.764;9.176;2023-05-14T06:14:54;98140.88;;;13.73;71.76
550;BME280;20066;48.764;9.176;2023-05-14T06:17:23;98142.91;;;13.96;70.92
550;BME280;20066;48.764;9.176;2023-05-14T06:19:51;98144.91;;;13.24;75.32
550;BME280;20066;48.764;9.176;2023-05-14T06:22:19;98147.34;;;14.13;70.38
550;BME280;20066;48.764;9.176;2023-05-14T06:24:47;98139.75;;;14.78;67.33
550;BME280;20066;48.764;9.176;2023-05-14T06:27:15;98145.53;;;13.69;72.84
550;BME280;20066;48.764;9.176;2023-05-14T06:29:42;98146.91;;;14.14;72.01
550;BME280;20066;48.764;9.176;2023-05-14T06:32:11;98140.66;;;14.71;66.54
550;BME280;20066;48.764;9.176;2023-05-14T06:34:41;98148.38;;;14.96;66.93
550;BME280;20066;48.764;9.176;2023-05-14T06:37:09;98144.19;;;14.68;67.05
550;BME280;20066;48.764;9.176;2023-05-14T06:39:37;98147.94;;;14.51;68.93
550;BME280;20066;48.764;9.176;2023-05-14T06:42:05;98144.41;;;14.77;65.82
550;BME280;20066;48.764;9.176;2023-05-14T06:44:33;98144.09;;;15.22;65.29
550;BME280;20066;48.764;9.176;2023-05-14T06:47:01;98137.47;;;15.82;63.50
550;BME280;20066;48.764;9.176;2023-05-14T06:49:30;98142.88;;;14.76;65.03
550;BME280;20066;48.764;9.176;2023-05-14T06:51:58;98139.47;;;15.38;65.17
550;BME280;20066;48.764;9.176;2023-05-14T06:54:26;98139.19;;;16.12;63.11
550;BME280;20066;48.764;9.176;2023-05-14T06:56:59;98140.75;;;16.45;60.67
550;BME280;20066;48.764;9.176;2023-05-14T06:59:27;98137.28;;;16.61;59.74
550;BME280;20066;48.764;9.176;2023-05-14T07:01:55;98135.63;;;15.95;63.12
550;BME280;20066;48.764;9.176;2023-05-14T07:04:23;98135.22;;;16.33;61.33
550;BME280;20066;48.764;9.176;2023-05-14T07:06:52;98142.50;;;16.19;60.31
550;BME280;20066;48.764;9.176;2023-05-14T07:09:20;98139.06;;;15.79;63.00
550;BME280;20066;48.764;9.176;2023-05-14T07:11:48;98145.34;;;15.37;62.56
550;BME280;20066;48.764;9.176;2023-05-14T07:14:15;98144.84;;;14.99;64.57
550;BME280;20066;48.764;9.176;2023-05-14T07:16:43;98137.00;;;15.48;63.20
550;BME280;20066;48.764;9.176;2023-05-14T07:19:12;98136.94;;;15.51;63.82
550;BME280;20066;48.764;9.176;2023-05-14T07:21:40;98137.47;;;15.62;63.36
550;BME280;20066;48.764;9.176;2023-05-14T07:24:10;98130.63;;;15.15;64.95
550;BME280;20066;48.764;9.176;2023-05-14T07:26:38;98135.19;;;14.75;65.79
550;BME280;20066;48.764;9.176;2023-05-14T07:29:06;98132.34;;;14.58;67.64
550;BME280;20066;48.764;9.176;2023-05-14T07:31:33;98125.03;;;14.32;nan
550;BME280;20066;48.764;9.176;2023-05-14T07:34:01;98126.50;;;13.79;70.17
550;BME280;20066;48.764;9.176;2023-05-14T07:36:29;98124.78;;;14.73;66.50
550;BME280;20066;48.764;9.176;2023-05-14T07:38:57;98131.34;;;15.78;64.18
550;BME280;20066;48.764;9.176;2023-05-14T07:41:26;98129.38;;;16.50;61.41
550;BME280;20066;48.764;9.176;2023-05-14T07:43:54;98130.34;;;15.52;64.40
550;BME280;20066;48.764;9.176;2023-05-14T07:46:22;98127.41;;;15.43;64.31
550;BME280;20066;48.764;9.176;2023-05-14T07:48:51;98124.38;;;16.33;62.39
550;BME280;20066;48.764;9.176;2023-05-14T07:51:19;98124.34;;;14.51;66.69
550;BME280;20066;48.764;9.176;2023-05-14T07:53:46;98116.53;;;15.63;65.56
550;BME280;20066;48.764;9.176;2023-05-14T07:56:14;98116.22;;;16.65;61.46
550;BME280;20066;48.764;9.176;2023-05-14T07:58:43;98120.97;;;16.29;62.42
550;BME280;20066;48.764;9.176;2023-05-14T08:01:11;98116.66;;;17.66;57.17
550;BME280;20066;48.764;9.176;2023-05-14T08:03:39;98116.41;;;18.02;55.61
550;BME280;20066;48.764;9.176;2023-05-14T08:06:07;98119.09;;;18.91;53.72
550;BME280;20066;48.764;9.176;2023-05-14T08:08:35;98114.28;;;16.66;59.03
550;BME280;20066;48.764;9.176;2023-05-14T08:11:02;98111.81;;;17.16;59.13
550;BME280;20066;48.764;9.176;2023-05-14T08:13:30;98116.38;;;18.66;54.46
550;BME280;20066;48.764;9.176;2023-05-14T08:15:59;98115.66;;;18.53;53.01
550;BME280;20066;48.764;9.176;2023-05-14T08:18:27;98120.56;;;19.27;51.86
550;BME280;20066;48.764;9.176;2023-05-14T08:20:55;98115.50;;;18.69;52.95
550;BME280;20066;48.764;9.176;2023-05-14T08:23:23;98107.50;;;18.15;55.72
550;BME280;20066;48.764;9.176;2023-05-14T08:25:51;98109.25;;;18.08;56.58
550;BME280;20066;48.764;9.176;2023-05-14T08:28:19;98100.16;;;18.62;55.10
550;BME280;20066;48.764;9.176;2023-05-14T08:30:47;98102.53;;;18.73;52.51
550;BME280;20066;48.764;9.176;2023-05-14T08:33:16;98092.00;;;19.31;52.15
550;BME280;20066;48.764;9.176;2023-05-14T08:35:44;98095.38;;;17.90;55.27
550;BME280;20066;48.764;9.176;2023-05-14T08:38:12;98098.59;;;18.74;53.05
550;BME280;20066;48.764;9.176;2023-05-14T08:40:40;98087.88;;;19.70;51.85
550;BME280;20066;48.764;9.176;2023-05-14T08:43:09;98088.03;;;20.07;50.55
550;BME280;20066;48.764;9.176;2023-05-14T08:45:38;98089.00;;;19.16;52.41
550;BME280;20066;48.764;9.176;2023-05-14T08:48:08;98094.94;;;20.79;48.34
550;BME280;20066;48.764;9.176;2023-05-14T08:50:42;98090.91;;;20.52;48.80
550;BME280;20066;48.764;9.176;2023-05-14T08:53:10;98095.22;;;19.39;52.71
550;BME280;20066;48.764;9.176;2023-05-14T08:55:38;98088.97;;;18.35;54.03
550;BME280;20066;48.764;9.176;2023-05-14T08:58:06;98093.66;;;18.47;54.03
550;BME280;20066;48.764;9.176;2023-05-14T09:00:34;98094.91;;;17.66;55.98
550;BME280;20066;48.764;9.176;2023-05-14T09:03:02;98092.19;;;19.02;52.70
550;BME280;20066;48.764;9.176;2023-05-14T09:05:32;98089.44;;;17.54;55.10
550;BME280;20066;48.764;9.176;2023-05-14T09:08:01;98097.72;;;18.77;54.85
550;BME280;20066;48.764;9.176;2023-05-14T09:10:29;98084.75;;;19.37;52.71
550;BME280;20066;48.764;9.176;2023-05-14T09:12:57;98082.94;;;19.65;51.87
550;BME280;20066;48.764;9.176;2023-05-14T09:15:26;98096.31;;;17.71;54.58
550;BME280;20066;48.764;9.176;2023-05-14T09:17:55;98091.16;;;17.06;55.69
550;BME280;20066;48.764;9.176;2023-05-14T09:20:23;98088.56;;;18.24;55.21
550;BME280;20066;48.764;9.176;2023-05-14T09:22:53;98085.53;;;18.69;52.07
550;BME280;20066;48.764;9.176;2023-05-14T09:25:26;98080.41;;;18.71;53.29
550;BME280;20066;48.764;9.176;2023-05-14T09:27:54;98079.97;;;19.72;50.75
550;BME280;20066;48.764;9.176;2023-05-14T09:30:24;98080.66;;;17.05;54.96
550;BME280;20066;48.764;9.176;2023-05-14T09:32:53;98073.06;;;18.33;51.88
550;BME280;20066;48.764;9.176;2023-05-14T09:35:23;98075.63;;;21.00;47.25
550;BME280;20066;48.764;9.176;2023-05-14T09:37:52;98081.63;;;18.70;53.07
550;BME280;20066;48.764;9.176;2023-05-14T09:40:22;98072.53;;;21.62;43.25
550;BME280;20066;48.764;9.176;2023-05-14T09:42:51;98066.25;;;20.34;47.53
550;BME280;20066;48.764;9.176;2023-05-14T09:45:18;98072.13;;;20.14;46.28
550;BME280;20066;48.764;9.176;2023-05-14T09:47:46;98061.81;;;20.95;45.63
550;BME280;20066;48.764;9.176;2023-05-14T09:50:14;98069.50;;;19.49;48.90
550;BME280;20066;48.764;9.176;2023-05-14T09:52:42;98062.06;;;18.71;50.46
550;BME280;20066;48.764;9.176;2023-05-14T09:55:10;98064.22;;;19.23;48.41
550;BME280;20066;48.764;9.176;2023-05-14T09:57:39;98067.09;;;19.73;48.04
550;BME280;20066;48.764;9.176;2023-05-14T10:00:08;98061.97;;;18.75;51.52
550;BME280;20066;48.764;9.176;2023-05-14T10:02:39;98061.06;;;16.97;54.44
550;BME280;20066;48.764;9.176;2023-05-14T10:05:08;98060.53;;;18.83;51.07
550;BME280;20066;48.764;9.176;2023-05-14T10:07:39;98046.97;;;17.98;52.64
550;BME280;20066;48.764;9.176;2023-05-14T10:10:12;98054.22;;;17.76;54.21
550;BME280;20066;48.764;9.176;2023-05-14T10:12:46;98042.44;;;17.53;53.94
550;BME280;20066;48.764;9.176;2023-05-14T10:15:19;98046.94;;;19.27;49.49
550;BME280;20066;48.764;9.176;2023-05-14T10:17:54;98049.38;;;18.56;51.05
550;BME280;20066;48.764;9.176;2023-05-14T10:20:23;98051.97;;;17.99;52.61
550;BME280;20066;48.764;9.176;2023-05-14T10:22:53;98056.28;;;18.35;52.10
550;BME280;20066;48.764;9.176;2023-05-14T10:25:21;98050.78;;;18.00;53.13
550;BME280;20066;48.764;9.176;2023-05-14T10:27:51;98054.69;;;17.99;52.22
550;BME280;20066;48.764;9.176;2023-05-14T10:30:20;98049.03;;;19.22;50.60
550;BME280;20066;48.764;9.176;2023-05-14T10:32:48;98049.22;;;18.12;50.66
550;BME280;20066;48.764;9.176;2023-05-14T10:35:17;98041.66;;;18.41;51.10
550;BME280;20066;48.764;9.176;2023-05-14T10:37:46;98044.66;;;20.09;48.05
550;BME280;20066;48.764;9.176;2023-05-14T10:40:17;98037.31;;;19.66;48.61
550;BME280;20066;48.764;9.176;2023-05-14T10:42:45;98043.56;;;19.44;48.91
550;BME280;20066;48.764;9.176;2023-05-14T10:45:14;98033.03;;;19.64;48.59
550;BME280;20066;48.764;9.176;2023-05-14T10:47:45;98039.03;;;19.72;47.35
550;BME280;20066;48.764;9.176;2023-05-14T10:50:14;98035.13;;;19.82;48.30
550;BME280;20066;48.764;9.176;2023-05-14T10:52:44;98030.34;;;18.43;50.58
550;BME280;20066;48.764;9.176;2023-05-14T10:55:13;98030.66;;;21.80;43.87
550;BME280;20066;48.764;9.176;2023-05-14T10:57:44;98034.03;;;19.49;48.65
550;BME280;20066;48.764;9.176;2023-05-14T11:00:15;98028.34;;;22.68;42.25
550;BME280;20066;48.764;9.176;2023-05-14T11:02:43;98019.97;;;23.54;40.16
550;BME280;20066;48.764;9.176;2023-05-14T11:05:13;98018.72;;;23.11;41.03
550;BME280;20066;48.764;9.176;2023-05-14T11:07:43;98014.25;;;20.56;44.98
550;BME280;20066;48.764;9.176;2023-05-14T11:10:14;98009.03;;;19.81;46.88
550;BME280;20066;48.764;9.176;2023-05-14T11:12:44;98012.56;;;20.49;46.35
550;BME280;20066;48.764;9.176;2023-05-14T11:15:15;98012.56;;;19.60;48.11
550;BME280;20066;48.764;9.176;2023-05-14T11:17:44;98012.75;;;18.57;50.97
550;BME280;20066;48.764;9.176;2023-05-14T11:20:13;98003.06;;;17.70;54.58
550;BME280;20066;48.764;9.176;2023-05-14T11:22:43;98006.75;;;17.64;55.83
550;BME280;20066;48.764;9.176;2023-05-14T11:25:12;98006.22;;;17.56;55.85
550;BME280;20066;48.764;9.176;2023-05-14T11:27:42;97996.84;;;18.21;54.15
550;BME280;20066;48.764;9.176;2023-05-14T11:30:15;97993.31;;;19.02;51.91
550;BME280;20066;48.764;9.176;2023-05-14T11:32:44;97991.19;;;19.98;48.97
550;BME280;20066;48.764;9.176;2023-05-14T11:35:13;97993.41;;;22.30;43.75
550;BME280;20066;48.764;9.176;2023-05-14T11:37:41;97994.19;;;27.04;34.87
550;BME280;20066;48.764;9.176;2023-05-14T11:40:14;97995.22;;;27.07;33.88
550;BME280;20066;48.764;9.176;2023-05-14T11:42:42;97986.28;;;24.24;38.33
550;BME280;20066;48.764;9.176;2023-05-14T11:45:11;97994.44;;;27.17;32.29
550;BME280;20066;48.764;9.176;2023-05-14T11:47:41;97987.44;;;27.94;31.64
550;BME280;20066;48.764;9.176;2023-05-14T11:50:09;97982.59;;;29.57;30.06
550;BME280;20066;48.764;9.176;2023-05-14T11:52:38;97982.16;;;22.04;42.12
550;BME280;20066;48.764;9.176;2023-05-14T11:55:09;97975.38;;;20.70;44.71
550;BME280;20066;48.764;9.176;2023-05-14T11:57:37;97973.66;;;19.07;49.72
550;BME280;20066;48.764;9.176;2023-05-14T12:00:07;97962.44;;;18.14;51.09
550;BME280;20066;48.764;9.176;2023-05-14T12:02:36;97967.25;;;19.01;50.50
550;BME280;20066;48.764;9.176;2023-05-14T12:05:07;97969.94;;;22.91;43.30
550;BME280;20066;48.764;9.176;2023-05-14T12:07:38;97966.69;;;23.81;40.66
550;BME280;20066;48.764;9.176;2023-05-14T12:10:07;97962.69;;;21.69;43.08
550;BME280;20066;48.764;9.176;2023-05-14T12:12:35;97963.22;;;19.76;47.59
550;BME280;20066;48.764;9.176;2023-05-14T12:15:10;97963.38;;;19.42;48.04
550;BME280;20066;48.764;9.176;2023-05-14T12:17:38;97957.00;;;18.14;51.17
550;BME280;20066;48.764;9.176;2023-05-14T12:20:09;97957.72;;;19.05;49.47
550;BME280;20066;48.764;9.176;2023-05-14T12:22:38;97956.09;;;20.55;46.16
550;BME280;20066;48.764;9.176;2023-05-14T12:25:10;97956.13;;;22.09;44.42
550;BME280;20066;48.764;9.176;2023-05-14T12:27:39;97953.88;;;21.23;45.38
550;BME280;20066;48.764;9.176;2023-05-14T12:30:08;97946.97;;;19.33;48.89
550;BME280;20066;48.764;9.176;2023-05-14T12:32:47;97948.91;;;20.12;46.84
550;BME280;20066;48.764;9.176;2023-05-14T12:35:19;97950.56;;;18.55;49.25
550;BME280;20066;48.764;9.176;2023-05-14T12:37:48;97942.53;;;17.92;51.29
550;BME280;20066;48.764;9.176;2023-05-14T12:40:16;97949.28;;;19.12;48.50
550;BME280;20066;48.764;9.176;2023-05-14T12:42:44;97953.06;;;20.71;45.77
550;BME280;20066;48.764;9.176;2023-05-14T12:45:11;97943.84;;;23.11;40.73
550;BME280;20066;48.764;9.176;2023-05-14T12:47:39;97937.25;;;21.78;41.91
550;BME280;20066;48.764;9.176;2023-05-14T12:50:08;97925.94;;;21.85;41.33
550;BME280;20066;48.764;9.176;2023-05-14T12:52:37;97927.66;;;22.45;40.63
550;BME280;20066;48.764;9.176;2023-05-14T12:55:06;97926.44;;;19.19;46.28
550;BME280;20066;48.764;9.176;2023-05-14T12:57:35;97919.28;;;20.11;45.51
550;BME280;20066;48.764;9.176;2023-05-14T13:00:07;97924.34;;;20.30;45.09
550;BME280;20066;48.764;9.176;2023-05-14T13:02:39;97916.38;;;23.25;38.57
550;BME280;20066;48.764;9.176;2023-05-14T13:05:09;97910.47;;;21.97;41.61
550;BME280;20066;48.764;9.176;2023-05-14T13:07:39;97915.72;;;25.87;34.76
550;BME280;20066;48.764;9.176;2023-05-14T13:10:08;97912.59;;;27.53;29.98
550;BME280;20066;48.764;9.176;2023-05-14T13:12:36;97906.81;;;27.01;32.77
550;BME280;20066;48.764;9.176;2023-05-14T13:15:05;97906.75;;;27.85;30.88
550;BME280;20066;48.764;9.176;2023-05-14T13:17:33;97893.75;;;24.41;35.50
550;BME280;20066;48.764;9.176;2023-05-14T13:20:01;97897.38;;;25.04;34.84
550;BME280;20066;48.764;9.176;2023-05-14T13:22:30;97892.66;;;22.25;39.45
550;BME280;20066;48.764;9.176;2023-05-14T13:24:59;97893.53;;;20.57;42.83
550;BME280;20066;48.764;9.176;2023-05-14T13:27:27;97889.81;;;19.69;44.95
550;BME280;20066;48.764;9.176;2023-05-14T13:30:04;97888.34;;;18.54;48.06